Time;durP1;ratioP1;P1;durP2;ratioP2;P2;SDS_P1;SDS_P2;PMS_P1;PMS_P2;Temp;Humidity;BMP_temperature;BMP_pressure;BME280_temperature;BME280_humidity;BME280_pressure;Samples;Min_cycle;Max_cycle;Signal;HPM_P1;HPM_P2
2023/06/02 00:08:02;;;;;;;1.92;1.20;;;;;;;20.12;50.74;101865.84;20820294;28;20045;-66
2023/06/02 00:18:04;;;;;;;1.58;1.00;;;;;;;20.12;50.76;101855.03;20812553;28;20072;-66
2023/06/02 00:28:06;;;;;;;1.90;0.88;;;;;;;20.12;50.66;101855.03;20795571;28;20414;-66
2023/06/02 00:38:07;;;;;;;1.92;0.98;;;;;;;20.12;50.49;101845.03;20811275;28;20045;-66
2023/06/02 00:48:09;;;;;;;1.65;0.80;;;;;;;20.12;50.57;101838.78;20809728;28;20425;-66
2023/06/02 00:58:13;;;;;;;1.85;1.00;;;;;;;20.11;50.29;101829.81;20810047;28;20095;-66
2023/06/02 01:08:16;;;;;;;1.77;1.07;;;;;;;20.11;50.31;101843.34;20815847;28;20098;-66
2023/06/02 01:18:25;;;;;;;2.65;0.98;;;;;;;20.10;50.26;101852.44;20800606;28;20058;-66
2023/06/02 01:28:27;;;;;;;2.60;1.33;;;;;;;20.03;50.28;101845.81;20793182;28;20060;-66
2023/06/02 01:38:30;;;;;;;2.53;1.33;;;;;;;19.99;50.20;101844.34;20799635;28;20064;-66
2023/06/02 01:48:33;;;;;;;2.80;1.27;;;;;;;19.95;50.16;101834.78;20779286;28;20045;-66
2023/06/02 01:58:36;;;;;;;1.70;0.90;;;;;;;19.93;50.28;101842.16;20807945;28;20124;-66
2023/06/02 02:08:37;;;;;;;3.45;1.20;;;;;;;19.90;50.33;101840.56;20808897;28;20832;-67
2023/06/02 02:18:40;;;;;;;3.53;1.30;;;;;;;19.89;50.34;101837.97;20806408;28;20084;-66
2023/06/02 02:28:41;;;;;;;3.08;1.20;;;;;;;19.86;50.22;101829.09;20804754;28;20042;-66
2023/06/02 02:38:43;;;;;;;2.58;1.15;;;;;;;19.85;50.10;101827.38;20784570;28;20045;-66
2023/06/02 02:48:45;;;;;;;2.78;1.10;;;;;;;19.84;50.29;101830.25;20804065;28;20139;-66
2023/06/02 02:58:47;;;;;;;2.35;1.10;;;;;;;19.82;50.32;101838.44;20819930;28;20046;-66
2023/06/02 03:08:49;;;;;;;3.40;1.73;;;;;;;19.81;50.33;101831.34;20810182;28;20068;-66
2023/06/02 03:18:51;;;;;;;2.20;1.00;;;;;;;19.81;50.29;101825.09;20804091;28;20042;-66
2023/06/02 03:28:53;;;;;;;3.38;1.15;;;;;;;19.79;50.47;101835.16;20818657;28;20123;-66
2023/06/02 03:38:54;;;;;;;2.85;1.20;;;;;;;19.78;50.59;101836.16;20814826;28;20060;-66
2023/06/02 03:48:56;;;;;;;2.55;0.90;;;;;;;19.76;50.61;101828.16;20815947;28;20051;-66
2023/06/02 03:58:59;;;;;;;1.88;1.27;;;;;;;19.76;50.55;101830.00;20838090;28;20553;-66
2023/06/02 04:09:00;;;;;;;2.80;1.10;;;;;;;19.76;50.66;101838.97;20822590;28;20041;-66
2023/06/02 04:19:02;;;;;;;2.13;1.08;;;;;;;19.74;50.87;101849.03;20804473;28;20046;-66
2023/06/02 04:29:04;;;;;;;2.35;1.20;;;;;;;19.73;50.94;101843.78;20798654;28;20037;-66
2023/06/02 04:39:08;;;;;;;2.88;1.42;;;;;;;19.72;51.03;101840.19;20799001;28;20059;-66
2023/06/02 04:49:09;;;;;;;1.60;1.10;;;;;;;19.77;50.97;101848.78;20815620;28;20051;-66
2023/06/02 04:59:12;;;;;;;3.75;1.30;;;;;;;19.80;51.26;101851.22;20805123;28;20041;-66
2023/06/02 05:09:15;;;;;;;3.25;1.23;;;;;;;19.80;51.33;101848.53;20773962;28;20091;-72
2023/06/02 05:19:17;;;;;;;1.58;0.90;;;;;;;19.83;51.66;101850.13;20773080;28;20363;-69
2023/06/02 05:29:19;;;;;;;3.55;1.25;;;;;;;19.85;52.21;101843.59;20766374;28;20058;-69
2023/06/02 05:39:21;;;;;;;3.38;1.23;;;;;;;19.88;52.16;101857.84;20802993;28;20476;-68
2023/06/02 05:49:23;;;;;;;2.30;1.08;;;;;;;19.87;52.21;101862.41;20784413;28;20054;-68
2023/06/02 05:59:25;;;;;;;3.13;1.27;;;;;;;19.90;52.24;101864.00;20827348;28;20049;-68
2023/06/02 06:09:28;;;;;;;3.50;1.00;;;;;;;19.89;52.35;101865.84;20810045;28;20045;-68
2023/06/02 06:19:31;;;;;;;3.33;1.48;;;;;;;19.87;52.56;101865.09;20788502;28;20900;-68
2023/06/02 06:29:32;;;;;;;4.82;1.52;;;;;;;19.85;55.14;101857.13;20816483;28;20045;-68
2023/06/02 06:39:36;;;;;;;4.15;1.50;;;;;;;19.85;55.04;101861.69;20790221;28;20084;-69
2023/06/02 06:49:37;;;;;;;4.80;1.70;;;;;;;19.86;55.82;101858.84;20814701;28;20056;-68
2023/06/02 06:59:42;;;;;;;3.15;1.75;;;;;;;19.86;56.18;101866.09;20797326;28;20060;-68
2023/06/02 07:09:44;;;;;;;6.30;2.10;;;;;;;19.85;56.50;101873.31;20827642;28;20132;-68
2023/06/02 07:19:45;;;;;;;6.20;1.63;;;;;;;19.88;56.48;101887.56;20825891;28;20494;-68
2023/06/02 07:29:47;;;;;;;4.70;1.80;;;;;;;19.89;56.62;101892.88;20825493;28;20045;-68
2023/06/02 07:39:49;;;;;;;4.32;1.73;;;;;;;19.91;56.82;101901.75;20803927;28;20386;-69
2023/06/02 07:49:50;;;;;;;4.97;1.85;;;;;;;20.00;57.29;101883.91;20837313;28;20405;-69
2023/06/02 07:59:54;;;;;;;4.45;1.60;;;;;;;20.08;57.34;101894.94;20789630;28;20042;-69
2023/06/02 08:09:55;;;;;;;6.47;2.10;;;;;;;20.34;57.81;101891.94;20799794;28;20124;-65
2023/06/02 08:19:58;;;;;;;5.50;2.00;;;;;;;21.88;54.97;101895.88;20801789;28;20076;-68
2023/06/02 08:30:00;;;;;;;5.88;1.98;;;;;;;22.54;52.53;101888.13;20793670;28;20083;-68
2023/06/02 08:40:03;;;;;;;8.07;2.63;;;;;;;22.50;52.51;101888.53;20844357;28;20081;-68
2023/06/02 08:50:06;;;;;;;4.73;1.77;;;;;;;23.46;49.98;101883.06;20790391;28;20041;-65
2023/06/02 09:00:09;;;;;;;4.17;1.80;;;;;;;23.15;50.03;101877.00;20790893;28;20049;-67
2023/06/02 09:10:10;;;;;;;4.82;1.60;;;;;;;22.56;51.35;101877.13;20779643;28;20049;-68
2023/06/02 09:20:12;;;;;;;4.97;1.92;;;;;;;22.19;52.49;101877.81;20823717;28;20049;-69
2023/06/02 09:30:14;;;;;;;2.95;1.45;;;;;;;21.82;52.86;101849.47;20792311;28;20076;-69
2023/06/02 09:40:26;;;;;;;2.95;1.13;;;;;;;21.79;53.13;101872.31;20779322;28;20050;-69
2023/06/02 09:50:37;;;;;;;5.50;1.30;;;;;;;21.71;53.60;101880.28;20794773;28;20123;-65
2023/06/02 10:00:39;;;;;;;3.00;1.20;;;;;;;21.70;53.69;101878.56;20805290;28;20057;-69
2023/06/02 10:10:53;;;;;;;3.05;1.33;;;;;;;21.69;53.75;101871.44;20816664;28;20462;-69
2023/06/02 10:21:20;;;;;;;5.25;1.60;;;;;;;21.69;53.75;101866.00;20821483;28;20101;-67
2023/06/02 10:31:32;;;;;;;3.45;1.55;;;;;;;21.66;53.43;101869.00;20798385;28;20136;-67
2023/06/02 10:42:06;;;;;;;3.17;1.30;;;;;;;21.65;53.32;101869.97;20816737;28;20723;-67
2023/06/02 10:52:08;;;;;;;2.85;1.40;;;;;;;21.58;53.14;101869.66;20810235;28;20100;-66
2023/06/02 11:02:10;;;;;;;2.85;1.63;;;;;;;21.54;53.56;101858.22;20838711;28;20509;-66
2023/06/02 11:12:15;;;;;;;;;;;;;;;21.51;53.72;101869.31;20828679;28;20520;-66
2023/06/02 11:22:18;;;;;;;2.72;1.27;;;;;;;21.43;53.76;101858.31;20832781;28;20428;-66
2023/06/02 11:32:20;;;;;;;2.63;1.20;;;;;;;21.47;53.81;101867.03;20859697;28;20076;-67
2023/06/02 11:42:34;;;;;;;2.80;1.40;;;;;;;21.48;53.71;101853.34;20817915;28;20057;-69
2023/06/02 11:52:37;;;;;;;1.15;0.80;;;;;;;21.49;52.90;101855.06;20824705;28;20049;-68
2023/06/02 12:02:39;;;;;;;1.90;0.70;;;;;;;21.50;52.65;101862.19;20825302;28;20480;-69
2023/06/02 12:12:45;;;;;;;3.10;0.88;;;;;;;21.54;52.18;101857.38;20795278;28;20045;-68
2023/06/02 12:22:54;;;;;;;1.15;0.60;;;;;;;21.57;52.08;101849.81;20763619;28;20510;-68
2023/06/02 12:33:04;;;;;;;2.50;1.25;;;;;;;21.58;51.74;101842.53;20810258;28;20045;-68
2023/06/02 12:43:06;;;;;;;2.70;1.05;;;;;;;21.57;51.48;101847.09;20800736;28;20041;-68
2023/06/02 12:53:07;;;;;;;1.17;0.60;;;;;;;21.61;51.31;101846.81;20796722;28;20060;-68
2023/06/02 13:03:09;;;;;;;1.80;1.00;;;;;;;21.62;51.31;101837.69;20793263;28;20148;-68
2023/06/02 13:13:13;;;;;;;2.45;1.23;;;;;;;21.59;51.63;101849.69;20809043;28;20057;-68
2023/06/02 13:23:15;;;;;;;2.40;0.80;;;;;;;21.56;51.89;101842.66;20805911;28;20517;-69
2023/06/02 13:33:17;;;;;;;1.70;0.75;;;;;;;21.51;51.93;101839.53;20789520;28;20148;-69
2023/06/02 13:43:26;;;;;;;1.52;0.75;;;;;;;21.57;52.06;101851.69;20790616;28;20052;-69
2023/06/02 13:53:28;;;;;;;2.67;1.17;;;;;;;21.56;51.85;101856.22;20807939;28;20060;-68
2023/06/02 14:03:29;;;;;;;1.38;0.80;;;;;;;21.54;51.93;101850.09;20817957;28;20049;-68
2023/06/02 14:13:31;;;;;;;1.52;0.70;;;;;;;21.51;52.42;101857.66;20796487;28;20502;-68
2023/06/02 14:23:33;;;;;;;16.33;2.17;;;;;;;21.48;54.03;101850.63;20790982;28;20041;-68
2023/06/02 14:33:35;;;;;;;7.93;1.80;;;;;;;21.34;54.12;101823.94;20801650;28;20416;-69
2023/06/02 14:43:37;;;;;;;4.03;1.23;;;;;;;21.47;53.92;101848.91;20767505;28;20129;-69
2023/06/02 14:53:38;;;;;;;3.85;1.33;;;;;;;21.44;53.65;101843.78;20775447;28;20045;-69
2023/06/02 15:03:41;;;;;;;3.00;1.02;;;;;;;21.43;53.47;101840.22;20803269;28;20152;-71
2023/06/02 15:13:43;;;;;;;2.72;0.95;;;;;;;21.45;53.46;101848.19;20806669;28;20132;-67
2023/06/02 15:23:44;;;;;;;2.58;0.98;;;;;;;21.19;55.05;101827.00;20803223;28;20041;-76
2023/06/02 15:33:46;;;;;;;1.52;0.90;;;;;;;21.06;56.50;101845.31;20785190;28;20136;-69
2023/06/02 15:43:48;;;;;;;2.58;1.08;;;;;;;20.93;57.20;101840.97;20789925;28;20119;-76
2023/06/02 15:53:49;;;;;;;2.42;1.05;;;;;;;20.88;58.18;101829.69;20802212;28;20045;-69
2023/06/02 16:03:51;;;;;;;4.88;1.50;;;;;;;20.89;58.76;101826.00;20805901;28;20525;-66
2023/06/02 16:13:53;;;;;;;1.70;1.13;;;;;;;20.92;60.09;101819.44;20797799;28;20176;-66
2023/06/02 16:23:56;;;;;;;2.50;1.75;;;;;;;20.93;63.16;101822.03;20785595;28;20073;-69
2023/06/02 16:33:58;;;;;;;3.63;1.60;;;;;;;20.94;63.32;101812.06;20789059;28;20600;-69
2023/06/02 16:43:59;;;;;;;2.95;1.10;;;;;;;20.98;62.14;101808.94;20785116;28;20068;-67
2023/06/02 16:54:01;;;;;;;2.22;1.23;;;;;;;21.00;60.92;101814.25;20792795;28;20472;-67
2023/06/02 17:04:02;;;;;;;1.85;1.20;;;;;;;20.99;61.52;101818.78;20776265;28;20573;-68
2023/06/02 17:14:04;;;;;;;2.83;1.20;;;;;;;21.00;61.97;101822.38;20798900;28;20053;-69
2023/06/02 17:24:06;;;;;;;2.10;1.40;;;;;;;20.98;61.72;101827.91;20793894;28;20050;-66
2023/06/02 17:34:08;;;;;;;2.58;1.17;;;;;;;20.97;61.67;101828.91;20790867;28;20155;-66
2023/06/02 17:44:10;;;;;;;2.63;1.27;;;;;;;20.97;61.25;101836.13;20778349;28;20049;-66
2023/06/02 17:54:11;;;;;;;4.47;1.17;;;;;;;20.95;60.39;101844.41;20789492;28;20144;-65
2023/06/02 18:04:13;;;;;;;3.08;1.10;;;;;;;20.89;60.34;101835.97;20827633;28;20045;-68
2023/06/02 18:14:15;;;;;;;3.80;1.80;;;;;;;20.91;59.92;101845.69;20799107;28;20046;-68
2023/06/02 18:24:17;;;;;;;3.30;1.27;;;;;;;20.88;59.56;101859.47;20822782;28;20125;-69
2023/06/02 18:34:18;;;;;;;5.30;1.50;;;;;;;20.86;59.38;101872.28;20828257;28;20052;-69
2023/06/02 18:44:20;;;;;;;6.13;1.40;;;;;;;20.78;59.01;101866.66;20825150;28;20144;-69
2023/06/02 18:54:21;;;;;;;1.55;1.00;;;;;;;20.81;58.87;101877.25;20831173;28;20076;-70
2023/06/02 19:04:23;;;;;;;3.00;1.50;;;;;;;20.79;58.70;101880.06;20830246;28;20080;-69
2023/06/02 19:14:25;;;;;;;1.83;1.30;;;;;;;20.78;58.68;101880.19;20829987;28;20117;-69
2023/06/02 19:24:27;;;;;;;2.63;1.73;;;;;;;20.76;58.64;101885.72;20829141;28;20056;-69
2023/06/02 19:34:28;;;;;;;4.47;1.60;;;;;;;20.76;58.85;101890.25;20881456;28;20073;-70
2023/06/02 19:44:32;;;;;;;2.90;1.70;;;;;;;20.73;58.46;101886.81;20908596;28;20434;-69
2023/06/02 19:54:35;;;;;;;4.07;1.30;;;;;;;20.72;58.62;101897.78;20908863;28;20052;-69
2023/06/02 20:04:37;;;;;;;1.70;1.30;;;;;;;20.70;58.36;101905.19;20908208;28;20053;-69
2023/06/02 20:14:39;;;;;;;1.98;1.30;;;;;;;20.68;58.62;101918.81;20907127;28;20092;-69
2023/06/02 20:24:41;;;;;;;2.42;1.60;;;;;;;20.67;58.32;101925.22;20906333;28;20091;-69
2023/06/02 20:34:42;;;;;;;1.70;1.40;;;;;;;20.64;58.39;101930.91;20891669;28;20131;-69
2023/06/02 20:44:44;;;;;;;2.83;1.30;;;;;;;20.62;57.97;101927.47;20904332;28;20231;-69
2023/06/02 20:54:45;;;;;;;2.85;1.20;;;;;;;20.61;57.90;101944.69;20904083;28;20081;-69
2023/06/02 21:04:47;;;;;;;1.85;1.30;;;;;;;20.58;58.35;101951.22;20903362;28;20045;-69
2023/06/02 21:14:49;;;;;;;2.35;1.05;;;;;;;20.57;57.43;101951.34;20902597;28;20053;-69
2023/06/02 21:24:52;;;;;;;1.65;1.20;;;;;;;20.55;58.01;101969.56;20901583;28;20049;-69
2023/06/02 21:34:54;;;;;;;2.08;1.10;;;;;;;20.53;57.10;101969.66;20893675;28;20048;-69
2023/06/02 21:44:57;;;;;;;1.85;1.02;;;;;;;20.52;57.02;101991.44;20899909;28;20092;-69
2023/06/02 21:54:59;;;;;;;3.08;1.17;;;;;;;20.50;56.64;101988.00;20898735;28;20048;-69
2023/06/02 22:05:00;;;;;;;1.98;1.00;;;;;;;20.49;56.13;101989.00;20900315;28;20058;-69
2023/06/02 22:15:03;;;;;;;1.48;0.85;;;;;;;20.47;55.86;101993.69;20899883;28;20081;-69
2023/06/02 22:25:05;;;;;;;1.92;1.25;;;;;;;20.42;55.34;101991.34;20888271;28;20053;-69
2023/06/02 22:35:07;;;;;;;1.63;1.20;;;;;;;20.45;55.36;102001.06;20899184;28;20079;-69
2023/06/02 22:45:08;;;;;;;1.40;1.10;;;;;;;20.43;54.94;102004.75;20870381;28;20053;-69
2023/06/02 22:55:10;;;;;;;1.02;0.82;;;;;;;20.42;54.79;101997.63;20800237;28;20038;-69
2023/06/02 23:05:12;;;;;;;1.10;0.80;;;;;;;20.41;54.56;101995.03;20806572;28;20045;-69
2023/06/02 23:15:17;;;;;;;3.22;1.08;;;;;;;20.39;54.11;102014.09;20813954;28;20124;-70
2023/06/02 23:25:19;;;;;;;1.73;1.00;;;;;;;20.35;53.47;102019.88;20808412;28;20053;-69
2023/06/02 23:35:21;;;;;;;1.30;0.80;;;;;;;20.33;53.64;102028.13;20817956;28;20141;-69
2023/06/02 23:45:22;;;;;;;1.05;0.70;;;;;;;20.29;52.83;102022.09;20817775;28;20095;-69
2023/06/02 23:55:25;;;;;;;0.88;0.80;;;;;;;20.27;52.82;102023.19;20825379;28;20416;-69
